Terminal Aerodrome Forecast
Issued by NWS Sioux Falls, SD

Home | Current Version | Previous Version | Text Only | Print | Product List | Glossary Off
Versions: 1 2 3 4 5 6 7 8 9 10 11 12 13 14 15 16

000
FTUS43 KFSD 201700
TAFSUX
TAF
KSUX 201738Z 2018/2118 16008KT P6SM BKN150
     FM202200 19010KT P6SM BKN080
     FM210000 17006KT P6SM BKN080
     FM210700 31007KT P6SM -SHRA BKN060
     FM211400 35017G26KT P6SM SKC=

USA.gov is the U.S. government's official web portal to all federal, state and local government web resources and services.